sensor_id;sensor_type;location;lat;lon;timestamp;P1;durP1;ratioP1;P2;durP2;ratioP2
19358;SDS011;9815;52.334;20.890;2024-01-30T00:02:31;49.53;;;17.67;;
19358;SDS011;9815;52.334;20.890;2024-01-30T00:05:00;42.03;;;18.77;;
19358;SDS011;9815;52.334;20.890;2024-01-30T00:07:30;40.83;;;17.33;;
19358;SDS011;9815;52.334;20.890;2024-01-30T00:09:59;42.03;;;17.97;;
19358;SDS011;9815;52.334;20.890;2024-01-30T00:12:28;45.50;;;19.77;;
19358;SDS011;9815;52.334;20.890;2024-01-30T00:14:56;45.20;;;18.33;;
19358;SDS011;9815;52.334;20.890;2024-01-30T00:17:25;45.37;;;18.87;;
19358;SDS011;9815;52.334;20.890;2024-01-30T00:19:54;42.20;;;17.97;;
19358;SDS011;9815;52.334;20.890;2024-01-30T00:22:23;41.53;;;18.57;;
19358;SDS011;9815;52.334;20.890;2024-01-30T00:24:51;41.27;;;17.93;;
19358;SDS011;9815;52.334;20.890;2024-01-30T00:27:20;43.13;;;17.97;;
19358;SDS011;9815;52.334;20.890;2024-01-30T00:29:48;47.13;;;18.73;;
19358;SDS011;9815;52.334;20.890;2024-01-30T00:32:17;48.40;;;19.00;;
19358;SDS011;9815;52.334;20.890;2024-01-30T00:34:46;47.20;;;19.33;;
19358;SDS011;9815;52.334;20.890;2024-01-30T00:37:16;43.57;;;19.53;;
19358;SDS011;9815;52.334;20.890;2024-01-30T00:39:45;40.63;;;19.37;;
19358;SDS011;9815;52.334;20.890;2024-01-30T00:42:14;50.43;;;19.20;;
19358;SDS011;9815;52.334;20.890;2024-01-30T00:44:42;40.27;;;18.03;;
19358;SDS011;9815;52.334;20.890;2024-01-30T00:47:11;43.93;;;18.70;;
19358;SDS011;9815;52.334;20.890;2024-01-30T00:49:39;42.13;;;17.87;;
19358;SDS011;9815;52.334;20.890;2024-01-30T00:52:08;41.13;;;18.37;;
19358;SDS011;9815;52.334;20.890;2024-01-30T00:54:38;42.93;;;18.17;;
19358;SDS011;9815;52.334;20.890;2024-01-30T00:57:07;39.13;;;17.57;;
19358;SDS011;9815;52.334;20.890;2024-01-30T00:59:35;42.60;;;18.60;;
19358;SDS011;9815;52.334;20.890;2024-01-30T01:02:04;44.80;;;19.23;;
19358;SDS011;9815;52.334;20.890;2024-01-30T01:04:32;46.33;;;19.20;;
19358;SDS011;9815;52.334;20.890;2024-01-30T01:07:01;40.90;;;18.47;;
19358;SDS011;9815;52.334;20.890;2024-01-30T01:09:30;43.03;;;18.80;;
19358;SDS011;9815;52.334;20.890;2024-01-30T01:12:00;47.77;;;20.07;;
19358;SDS011;9815;52.334;20.890;2024-01-30T01:14:29;46.20;;;19.77;;
19358;SDS011;9815;52.334;20.890;2024-01-30T01:16:58;43.97;;;18.77;;
19358;SDS011;9815;52.334;20.890;2024-01-30T01:19:26;43.97;;;19.63;;
19358;SDS011;9815;52.334;20.890;2024-01-30T01:21:55;48.33;;;19.00;;
19358;SDS011;9815;52.334;20.890;2024-01-30T01:24:24;40.10;;;18.23;;
19358;SDS011;9815;52.334;20.890;2024-01-30T01:26:52;45.73;;;18.57;;
19358;SDS011;9815;52.334;20.890;2024-01-30T01:29:22;43.23;;;19.33;;
19358;SDS011;9815;52.334;20.890;2024-01-30T01:31:55;48.53;;;18.40;;
19358;SDS011;9815;52.334;20.890;2024-01-30T01:34:24;45.97;;;18.77;;
19358;SDS011;9815;52.334;20.890;2024-01-30T01:36:56;47.53;;;20.20;;
19358;SDS011;9815;52.334;20.890;2024-01-30T01:39:25;47.67;;;18.80;;
19358;SDS011;9815;52.334;20.890;2024-01-30T01:41:53;43.53;;;18.97;;
19358;SDS011;9815;52.334;20.890;2024-01-30T01:44:23;39.43;;;18.43;;
19358;SDS011;9815;52.334;20.890;2024-01-30T01:46:52;40.97;;;18.53;;
19358;SDS011;9815;52.334;20.890;2024-01-30T01:49:22;46.77;;;19.40;;
19358;SDS011;9815;52.334;20.890;2024-01-30T01:51:52;47.57;;;18.17;;
19358;SDS011;9815;52.334;20.890;2024-01-30T01:54:23;46.27;;;18.70;;
19358;SDS011;9815;52.334;20.890;2024-01-30T01:56:53;42.50;;;18.03;;
19358;SDS011;9815;52.334;20.890;2024-01-30T01:59:23;42.07;;;19.20;;
19358;SDS011;9815;52.334;20.890;2024-01-30T02:01:52;42.57;;;18.70;;
19358;SDS011;9815;52.334;20.890;2024-01-30T02:04:23;41.63;;;17.53;;
19358;SDS011;9815;52.334;20.890;2024-01-30T02:06:51;46.73;;;18.93;;
19358;SDS011;9815;52.334;20.890;2024-01-30T02:09:20;47.73;;;18.63;;
19358;SDS011;9815;52.334;20.890;2024-01-30T02:11:49;47.60;;;20.20;;
19358;SDS011;9815;52.334;20.890;2024-01-30T02:14:19;44.10;;;19.23;;
19358;SDS011;9815;52.334;20.890;2024-01-30T02:16:49;40.93;;;17.27;;
19358;SDS011;9815;52.334;20.890;2024-01-30T02:19:18;41.23;;;19.00;;
19358;SDS011;9815;52.334;20.890;2024-01-30T02:21:48;44.13;;;18.00;;
19358;SDS011;9815;52.334;20.890;2024-01-30T02:24:18;40.47;;;18.60;;
19358;SDS011;9815;52.334;20.890;2024-01-30T02:26:47;42.03;;;17.93;;
19358;SDS011;9815;52.334;20.890;2024-01-30T02:29:16;44.37;;;17.77;;
19358;SDS011;9815;52.334;20.890;2024-01-30T02:31:44;42.67;;;17.87;;
19358;SDS011;9815;52.334;20.890;2024-01-30T02:34:13;42.53;;;18.57;;
19358;SDS011;9815;52.334;20.890;2024-01-30T02:36:42;43.57;;;17.43;;
19358;SDS011;9815;52.334;20.890;2024-01-30T02:39:12;42.77;;;19.00;;
19358;SDS011;9815;52.334;20.890;2024-01-30T02:41:40;41.20;;;17.87;;
19358;SDS011;9815;52.334;20.890;2024-01-30T02:44:09;48.57;;;18.73;;
19358;SDS011;9815;52.334;20.890;2024-01-30T02:46:38;41.63;;;17.37;;
19358;SDS011;9815;52.334;20.890;2024-01-30T02:49:06;42.13;;;17.53;;
19358;SDS011;9815;52.334;20.890;2024-01-30T02:51:35;40.53;;;17.47;;
19358;SDS011;9815;52.334;20.890;2024-01-30T02:54:04;42.27;;;17.63;;
19358;SDS011;9815;52.334;20.890;2024-01-30T02:56:34;42.67;;;17.97;;
19358;SDS011;9815;52.334;20.890;2024-01-30T02:59:02;44.63;;;18.73;;
19358;SDS011;9815;52.334;20.890;2024-01-30T03:01:31;43.37;;;18.30;;
19358;SDS011;9815;52.334;20.890;2024-01-30T03:03:59;39.43;;;17.60;;
19358;SDS011;9815;52.334;20.890;2024-01-30T03:06:29;38.43;;;17.10;;
19358;SDS011;9815;52.334;20.890;2024-01-30T03:08:57;43.83;;;18.50;;
19358;SDS011;9815;52.334;20.890;2024-01-30T03:11:26;38.30;;;17.47;;
19358;SDS011;9815;52.334;20.890;2024-01-30T03:13:55;42.33;;;17.03;;
19358;SDS011;9815;52.334;20.890;2024-01-30T03:16:24;40.27;;;17.37;;
19358;SDS011;9815;52.334;20.890;2024-01-30T03:18:52;44.23;;;17.50;;
19358;SDS011;9815;52.334;20.890;2024-01-30T03:21:21;42.07;;;18.33;;
19358;SDS011;9815;52.334;20.890;2024-01-30T03:23:50;39.77;;;17.60;;
19358;SDS011;9815;52.334;20.890;2024-01-30T03:26:18;40.30;;;18.33;;
19358;SDS011;9815;52.334;20.890;2024-01-30T03:28:47;42.60;;;17.27;;
19358;SDS011;9815;52.334;20.890;2024-01-30T03:31:16;39.07;;;17.77;;
19358;SDS011;9815;52.334;20.890;2024-01-30T03:33:45;43.07;;;18.13;;
19358;SDS011;9815;52.334;20.890;2024-01-30T03:36:15;42.57;;;18.47;;
19358;SDS011;9815;52.334;20.890;2024-01-30T03:38:43;42.30;;;18.03;;
19358;SDS011;9815;52.334;20.890;2024-01-30T03:41:12;39.27;;;17.97;;
19358;SDS011;9815;52.334;20.890;2024-01-30T03:43:40;47.57;;;18.57;;
19358;SDS011;9815;52.334;20.890;2024-01-30T03:46:09;47.63;;;18.30;;
19358;SDS011;9815;52.334;20.890;2024-01-30T03:48:40;43.63;;;17.30;;
19358;SDS011;9815;52.334;20.890;2024-01-30T03:51:09;42.03;;;17.90;;
19358;SDS011;9815;52.334;20.890;2024-01-30T03:53:41;42.83;;;17.40;;
19358;SDS011;9815;52.334;20.890;2024-01-30T03:56:09;42.10;;;17.43;;
19358;SDS011;9815;52.334;20.890;2024-01-30T03:58:39;40.33;;;17.50;;
19358;SDS011;9815;52.334;20.890;2024-01-30T04:01:12;39.37;;;17.80;;
19358;SDS011;9815;52.334;20.890;2024-01-30T04:03:43;38.63;;;17.20;;
19358;SDS011;9815;52.334;20.890;2024-01-30T04:06:12;44.30;;;16.97;;
19358;SDS011;9815;52.334;20.890;2024-01-30T04:08:40;39.10;;;17.13;;
19358;SDS011;9815;52.334;20.890;2024-01-30T04:11:08;39.37;;;17.27;;
19358;SDS011;9815;52.334;20.890;2024-01-30T04:13:37;36.97;;;17.23;;
19358;SDS011;9815;52.334;20.890;2024-01-30T04:16:06;38.23;;;16.77;;
19358;SDS011;9815;52.334;20.890;2024-01-30T04:18:35;46.43;;;17.97;;
19358;SDS011;9815;52.334;20.890;2024-01-30T04:21:05;40.37;;;17.80;;
19358;SDS011;9815;52.334;20.890;2024-01-30T04:23:33;44.17;;;17.37;;
19358;SDS011;9815;52.334;20.890;2024-01-30T04:26:02;41.30;;;17.37;;
19358;SDS011;9815;52.334;20.890;2024-01-30T04:28:31;42.90;;;18.83;;
19358;SDS011;9815;52.334;20.890;2024-01-30T04:31:00;49.10;;;19.07;;
19358;SDS011;9815;52.334;20.890;2024-01-30T04:33:28;46.03;;;19.13;;
19358;SDS011;9815;52.334;20.890;2024-01-30T04:35:57;45.97;;;19.90;;
19358;SDS011;9815;52.334;20.890;2024-01-30T04:38:27;49.37;;;21.50;;
19358;SDS011;9815;52.334;20.890;2024-01-30T04:40:55;55.93;;;21.50;;
19358;SDS011;9815;52.334;20.890;2024-01-30T04:43:23;45.33;;;19.20;;
19358;SDS011;9815;52.334;20.890;2024-01-30T04:45:52;48.43;;;19.47;;
19358;SDS011;9815;52.334;20.890;2024-01-30T04:48:21;43.27;;;19.03;;
19358;SDS011;9815;52.334;20.890;2024-01-30T04:50:49;46.47;;;18.73;;
19358;SDS011;9815;52.334;20.890;2024-01-30T04:53:18;41.23;;;17.67;;
19358;SDS011;9815;52.334;20.890;2024-01-30T04:55:48;40.80;;;17.67;;
19358;SDS011;9815;52.334;20.890;2024-01-30T04:58:16;42.93;;;17.47;;
19358;SDS011;9815;52.334;20.890;2024-01-30T05:00:45;45.77;;;18.77;;
19358;SDS011;9815;52.334;20.890;2024-01-30T05:03:18;49.00;;;19.10;;
19358;SDS011;9815;52.334;20.890;2024-01-30T05:05:49;50.20;;;21.17;;
19358;SDS011;9815;52.334;20.890;2024-01-30T05:08:17;44.57;;;19.93;;
19358;SDS011;9815;52.334;20.890;2024-01-30T05:10:47;45.87;;;19.03;;
19358;SDS011;9815;52.334;20.890;2024-01-30T05:13:15;40.60;;;17.80;;
19358;SDS011;9815;52.334;20.890;2024-01-30T05:15:44;41.70;;;18.83;;
19358;SDS011;9815;52.334;20.890;2024-01-30T05:18:12;38.00;;;18.63;;
19358;SDS011;9815;52.334;20.890;2024-01-30T05:20:41;45.73;;;18.77;;
19358;SDS011;9815;52.334;20.890;2024-01-30T05:23:10;42.13;;;17.93;;
19358;SDS011;9815;52.334;20.890;2024-01-30T05:25:38;39.90;;;18.17;;
19358;SDS011;9815;52.334;20.890;2024-01-30T05:28:08;44.83;;;19.50;;
19358;SDS011;9815;52.334;20.890;2024-01-30T05:30:36;42.77;;;18.43;;
19358;SDS011;9815;52.334;20.890;2024-01-30T05:33:05;43.57;;;19.10;;
19358;SDS011;9815;52.334;20.890;2024-01-30T05:35:33;45.77;;;19.80;;
19358;SDS011;9815;52.334;20.890;2024-01-30T05:38:02;40.80;;;16.97;;
19358;SDS011;9815;52.334;20.890;2024-01-30T05:40:30;41.80;;;18.20;;
19358;SDS011;9815;52.334;20.890;2024-01-30T05:42:59;46.50;;;18.63;;
19358;SDS011;9815;52.334;20.890;2024-01-30T05:45:30;42.27;;;18.97;;
19358;SDS011;9815;52.334;20.890;2024-01-30T05:47:59;41.50;;;20.30;;
19358;SDS011;9815;52.334;20.890;2024-01-30T05:50:27;47.63;;;20.23;;
19358;SDS011;9815;52.334;20.890;2024-01-30T05:52:56;41.30;;;19.50;;
19358;SDS011;9815;52.334;20.890;2024-01-30T05:55:25;51.57;;;19.47;;
19358;SDS011;9815;52.334;20.890;2024-01-30T05:57:53;42.53;;;18.60;;
19358;SDS011;9815;52.334;20.890;2024-01-30T06:00:22;42.43;;;18.73;;
19358;SDS011;9815;52.334;20.890;2024-01-30T06:02:52;45.17;;;20.00;;
19358;SDS011;9815;52.334;20.890;2024-01-30T06:05:20;41.57;;;17.47;;
19358;SDS011;9815;52.334;20.890;2024-01-30T06:07:49;48.90;;;18.20;;
19358;SDS011;9815;52.334;20.890;2024-01-30T06:10:17;43.13;;;18.63;;
19358;SDS011;9815;52.334;20.890;2024-01-30T06:12:46;41.00;;;17.23;;
19358;SDS011;9815;52.334;20.890;2024-01-30T06:15:14;36.00;;;16.10;;
19358;SDS011;9815;52.334;20.890;2024-01-30T06:17:43;38.63;;;16.00;;
19358;SDS011;9815;52.334;20.890;2024-01-30T06:20:13;38.97;;;16.90;;
19358;SDS011;9815;52.334;20.890;2024-01-30T06:22:41;39.70;;;17.00;;
19358;SDS011;9815;52.334;20.890;2024-01-30T06:25:10;41.90;;;16.83;;
19358;SDS011;9815;52.334;20.890;2024-01-30T06:27:39;36.13;;;15.77;;
19358;SDS011;9815;52.334;20.890;2024-01-30T06:30:07;37.33;;;16.10;;
19358;SDS011;9815;52.334;20.890;2024-01-30T06:32:36;42.00;;;16.77;;
19358;SDS011;9815;52.334;20.890;2024-01-30T06:35:07;38.10;;;16.53;;
19358;SDS011;9815;52.334;20.890;2024-01-30T06:37:39;37.33;;;16.37;;
19358;SDS011;9815;52.334;20.890;2024-01-30T06:40:08;34.80;;;16.10;;
19358;SDS011;9815;52.334;20.890;2024-01-30T06:42:37;36.97;;;15.97;;
19358;SDS011;9815;52.334;20.890;2024-01-30T06:45:06;42.20;;;16.90;;
19358;SDS011;9815;52.334;20.890;2024-01-30T06:47:35;40.17;;;17.23;;
19358;SDS011;9815;52.334;20.890;2024-01-30T06:50:04;39.90;;;16.97;;
19358;SDS011;9815;52.334;20.890;2024-01-30T06:52:33;41.27;;;16.67;;
19358;SDS011;9815;52.334;20.890;2024-01-30T06:55:05;38.77;;;16.77;;
19358;SDS011;9815;52.334;20.890;2024-01-30T06:57:34;46.23;;;17.47;;
19358;SDS011;9815;52.334;20.890;2024-01-30T07:00:03;38.17;;;16.50;;
19358;SDS011;9815;52.334;20.890;2024-01-30T07:02:32;40.10;;;17.13;;
19358;SDS011;9815;52.334;20.890;2024-01-30T07:05:01;44.57;;;17.73;;
19358;SDS011;9815;52.334;20.890;2024-01-30T07:07:30;34.87;;;16.47;;
19358;SDS011;9815;52.334;20.890;2024-01-30T07:09:59;36.77;;;17.13;;
19358;SDS011;9815;52.334;20.890;2024-01-30T07:12:30;40.10;;;17.13;;
19358;SDS011;9815;52.334;20.890;2024-01-30T07:14:59;35.77;;;16.70;;
19358;SDS011;9815;52.334;20.890;2024-01-30T07:17:28;36.57;;;16.87;;
19358;SDS011;9815;52.334;20.890;2024-01-30T07:19:57;43.40;;;16.07;;
19358;SDS011;9815;52.334;20.890;2024-01-30T07:22:26;37.60;;;15.83;;
19358;SDS011;9815;52.334;20.890;2024-01-30T07:24:54;41.53;;;18.23;;
19358;SDS011;9815;52.334;20.890;2024-01-30T07:27:23;35.27;;;16.23;;
19358;SDS011;9815;52.334;20.890;2024-01-30T07:29:52;36.33;;;16.40;;
19358;SDS011;9815;52.334;20.890;2024-01-30T07:32:21;44.97;;;17.17;;
19358;SDS011;9815;52.334;20.890;2024-01-30T07:34:50;39.37;;;16.30;;
19358;SDS011;9815;52.334;20.890;2024-01-30T07:37:33;36.27;;;15.97;;
19358;SDS011;9815;52.334;20.890;2024-01-30T07:40:02;39.57;;;16.83;;
19358;SDS011;9815;52.334;20.890;2024-01-30T07:42:31;37.33;;;16.27;;
19358;SDS011;9815;52.334;20.890;2024-01-30T07:45:01;36.70;;;16.33;;
19358;SDS011;9815;52.334;20.890;2024-01-30T07:47:29;34.80;;;16.47;;
19358;SDS011;9815;52.334;20.890;2024-01-30T07:49:58;38.13;;;15.83;;
19358;SDS011;9815;52.334;20.890;2024-01-30T07:52:28;29.83;;;15.17;;
19358;SDS011;9815;52.334;20.890;2024-01-30T07:54:57;35.73;;;14.53;;
19358;SDS011;9815;52.334;20.890;2024-01-30T07:57:25;37.03;;;15.70;;
19358;SDS011;9815;52.334;20.890;2024-01-30T07:59:55;30.37;;;14.23;;
19358;SDS011;9815;52.334;20.890;2024-01-30T08:02:25;36.43;;;14.30;;
19358;SDS011;9815;52.334;20.890;2024-01-30T08:04:53;29.77;;;13.70;;
19358;SDS011;9815;52.334;20.890;2024-01-30T08:07:22;31.57;;;13.40;;
19358;SDS011;9815;52.334;20.890;2024-01-30T08:09:50;29.27;;;14.40;;
19358;SDS011;9815;52.334;20.890;2024-01-30T08:12:19;29.73;;;13.60;;
19358;SDS011;9815;52.334;20.890;2024-01-30T08:14:47;30.60;;;14.43;;
19358;SDS011;9815;52.334;20.890;2024-01-30T08:17:15;33.97;;;13.27;;
19358;SDS011;9815;52.334;20.890;2024-01-30T08:19:45;27.43;;;13.10;;
19358;SDS011;9815;52.334;20.890;2024-01-30T08:22:13;31.33;;;13.27;;
19358;SDS011;9815;52.334;20.890;2024-01-30T08:24:42;28.23;;;13.33;;
19358;SDS011;9815;52.334;20.890;2024-01-30T08:27:10;30.50;;;13.70;;
19358;SDS011;9815;52.334;20.890;2024-01-30T08:29:39;26.87;;;12.93;;
19358;SDS011;9815;52.334;20.890;2024-01-30T08:32:07;27.83;;;13.73;;
19358;SDS011;9815;52.334;20.890;2024-01-30T08:34:36;28.80;;;12.83;;
19358;SDS011;9815;52.334;20.890;2024-01-30T08:37:06;30.63;;;13.17;;
19358;SDS011;9815;52.334;20.890;2024-01-30T08:39:34;29.07;;;13.17;;
19358;SDS011;9815;52.334;20.890;2024-01-30T08:42:03;28.57;;;13.57;;
19358;SDS011;9815;52.334;20.890;2024-01-30T08:44:32;30.83;;;13.17;;
19358;SDS011;9815;52.334;20.890;2024-01-30T08:47:00;29.37;;;13.40;;
19358;SDS011;9815;52.334;20.890;2024-01-30T08:49:29;32.77;;;13.67;;
19358;SDS011;9815;52.334;20.890;2024-01-30T08:51:58;32.10;;;14.00;;
19358;SDS011;9815;52.334;20.890;2024-01-30T08:54:28;24.17;;;12.53;;
19358;SDS011;9815;52.334;20.890;2024-01-30T08:56:59;30.57;;;12.43;;
19358;SDS011;9815;52.334;20.890;2024-01-30T08:59:27;26.57;;;12.70;;
19358;SDS011;9815;52.334;20.890;2024-01-30T09:01:56;31.07;;;13.43;;
19358;SDS011;9815;52.334;20.890;2024-01-30T09:04:37;30.97;;;13.43;;
19358;SDS011;9815;52.334;20.890;2024-01-30T09:07:06;30.57;;;13.10;;
19358;SDS011;9815;52.334;20.890;2024-01-30T09:09:39;24.37;;;11.83;;
19358;SDS011;9815;52.334;20.890;2024-01-30T09:12:08;27.80;;;12.40;;
19358;SDS011;9815;52.334;20.890;2024-01-30T09:14:39;27.67;;;11.87;;
19358;SDS011;9815;52.334;20.890;2024-01-30T09:17:08;26.47;;;11.90;;
19358;SDS011;9815;52.334;20.890;2024-01-30T09:19:37;30.67;;;13.20;;
19358;SDS011;9815;52.334;20.890;2024-01-30T09:22:06;28.47;;;12.43;;
19358;SDS011;9815;52.334;20.890;2024-01-30T09:24:35;27.97;;;12.27;;
19358;SDS011;9815;52.334;20.890;2024-01-30T09:27:05;24.07;;;11.87;;
19358;SDS011;9815;52.334;20.890;2024-01-30T09:29:34;21.80;;;11.70;;
19358;SDS011;9815;52.334;20.890;2024-01-30T09:32:04;26.33;;;11.27;;
19358;SDS011;9815;52.334;20.890;2024-01-30T09:34:33;21.47;;;11.13;;
19358;SDS011;9815;52.334;20.890;2024-01-30T09:37:02;27.17;;;10.37;;
19358;SDS011;9815;52.334;20.890;2024-01-30T09:39:31;23.47;;;10.27;;
19358;SDS011;9815;52.334;20.890;2024-01-30T09:42:01;18.67;;;9.87;;
19358;SDS011;9815;52.334;20.890;2024-01-30T09:44:35;26.67;;;10.60;;
19358;SDS011;9815;52.334;20.890;2024-01-30T09:47:08;31.97;;;11.90;;
19358;SDS011;9815;52.334;20.890;2024-01-30T09:49:37;25.20;;;10.60;;
19358;SDS011;9815;52.334;20.890;2024-01-30T09:52:06;23.70;;;10.30;;
19358;SDS011;9815;52.334;20.890;2024-01-30T09:54:36;20.87;;;9.97;;
19358;SDS011;9815;52.334;20.890;2024-01-30T09:57:06;19.13;;;9.30;;
19358;SDS011;9815;52.334;20.890;2024-01-30T09:59:36;22.80;;;9.30;;
19358;SDS011;9815;52.334;20.890;2024-01-30T10:02:05;16.07;;;8.80;;
19358;SDS011;9815;52.334;20.890;2024-01-30T10:04:36;17.63;;;8.77;;
19358;SDS011;9815;52.334;20.890;2024-01-30T10:07:05;24.30;;;9.87;;
19358;SDS011;9815;52.334;20.890;2024-01-30T10:09:35;20.10;;;9.63;;
19358;SDS011;9815;52.334;20.890;2024-01-30T10:12:05;21.10;;;9.47;;
19358;SDS011;9815;52.334;20.890;2024-01-30T10:14:38;25.77;;;10.20;;
19358;SDS011;9815;52.334;20.890;2024-01-30T10:17:07;20.10;;;8.67;;
19358;SDS011;9815;52.334;20.890;2024-01-30T10:19:47;22.07;;;9.27;;
19358;SDS011;9815;52.334;20.890;2024-01-30T10:22:16;25.57;;;9.20;;
19358;SDS011;9815;52.334;20.890;2024-01-30T10:24:45;21.93;;;9.23;;
19358;SDS011;9815;52.334;20.890;2024-01-30T10:27:13;19.20;;;8.73;;
19358;SDS011;9815;52.334;20.890;2024-01-30T10:29:48;17.60;;;8.57;;
19358;SDS011;9815;52.334;20.890;2024-01-30T10:32:17;24.53;;;9.50;;
19358;SDS011;9815;52.334;20.890;2024-01-30T10:34:45;13.67;;;7.83;;
19358;SDS011;9815;52.334;20.890;2024-01-30T10:37:15;18.73;;;8.93;;
19358;SDS011;9815;52.334;20.890;2024-01-30T10:39:45;18.13;;;8.17;;
19358;SDS011;9815;52.334;20.890;2024-01-30T10:42:14;22.20;;;9.27;;
19358;SDS011;9815;52.334;20.890;2024-01-30T10:44:48;18.87;;;9.10;;
19358;SDS011;9815;52.334;20.890;2024-01-30T10:47:26;18.57;;;8.73;;
19358;SDS011;9815;52.334;20.890;2024-01-30T10:49:56;18.77;;;9.10;;
19358;SDS011;9815;52.334;20.890;2024-01-30T10:52:25;18.50;;;8.47;;
19358;SDS011;9815;52.334;20.890;2024-01-30T10:54:56;20.13;;;8.87;;
19358;SDS011;9815;52.334;20.890;2024-01-30T10:57:25;22.50;;;8.60;;
19358;SDS011;9815;52.334;20.890;2024-01-30T10:59:56;19.20;;;8.47;;
19358;SDS011;9815;52.334;20.890;2024-01-30T11:02:26;19.63;;;8.63;;
19358;SDS011;9815;52.334;20.890;2024-01-30T11:04:56;19.47;;;9.13;;
19358;SDS011;9815;52.334;20.890;2024-01-30T11:07:28;17.40;;;8.50;;
19358;SDS011;9815;52.334;20.890;2024-01-30T11:09:59;19.53;;;8.57;;
19358;SDS011;9815;52.334;20.890;2024-01-30T11:12:30;21.97;;;8.60;;
19358;SDS011;9815;52.334;20.890;2024-01-30T11:15:03;14.67;;;8.50;;
19358;SDS011;9815;52.334;20.890;2024-01-30T11:17:44;15.57;;;7.93;;
19358;SDS011;9815;52.334;20.890;2024-01-30T11:20:19;17.30;;;8.27;;
19358;SDS011;9815;52.334;20.890;2024-01-30T11:22:50;17.77;;;8.43;;
19358;SDS011;9815;52.334;20.890;2024-01-30T11:25:20;16.73;;;8.50;;
19358;SDS011;9815;52.334;20.890;2024-01-30T11:27:50;20.17;;;8.83;;
19358;SDS011;9815;52.334;20.890;2024-01-30T11:30:25;20.77;;;7.63;;
19358;SDS011;9815;52.334;20.890;2024-01-30T11:33:03;24.27;;;8.77;;
19358;SDS011;9815;52.334;20.890;2024-01-30T11:35:34;16.33;;;9.10;;
19358;SDS011;9815;52.334;20.890;2024-01-30T11:38:03;16.13;;;7.50;;
19358;SDS011;9815;52.334;20.890;2024-01-30T11:40:33;15.53;;;8.70;;
19358;SDS011;9815;52.334;20.890;2024-01-30T11:43:03;25.37;;;9.10;;
19358;SDS011;9815;52.334;20.890;2024-01-30T11:45:35;18.63;;;8.43;;
19358;SDS011;9815;52.334;20.890;2024-01-30T11:48:04;14.87;;;7.90;;
19358;SDS011;9815;52.334;20.890;2024-01-30T11:50:34;15.50;;;7.63;;
19358;SDS011;9815;52.334;20.890;2024-01-30T11:53:05;16.00;;;8.27;;
19358;SDS011;9815;52.334;20.890;2024-01-30T11:55:33;17.20;;;7.97;;
19358;SDS011;9815;52.334;20.890;2024-01-30T11:58:04;19.33;;;7.67;;
19358;SDS011;9815;52.334;20.890;2024-01-30T12:00:34;15.67;;;7.73;;
19358;SDS011;9815;52.334;20.890;2024-01-30T12:03:03;20.70;;;9.23;;
19358;SDS011;9815;52.334;20.890;2024-01-30T12:05:33;20.57;;;8.13;;
19358;SDS011;9815;52.334;20.890;2024-01-30T12:08:03;19.43;;;8.20;;
19358;SDS011;9815;52.334;20.890;2024-01-30T12:10:34;16.33;;;7.53;;
19358;SDS011;9815;52.334;20.890;2024-01-30T12:13:03;15.17;;;8.57;;
19358;SDS011;9815;52.334;20.890;2024-01-30T12:15:32;24.90;;;8.97;;
19358;SDS011;9815;52.334;20.890;2024-01-30T12:18:05;13.97;;;7.90;;
19358;SDS011;9815;52.334;20.890;2024-01-30T12:20:35;19.13;;;8.37;;
19358;SDS011;9815;52.334;20.890;2024-01-30T12:23:03;20.50;;;8.50;;
19358;SDS011;9815;52.334;20.890;2024-01-30T12:25:32;17.60;;;8.87;;
19358;SDS011;9815;52.334;20.890;2024-01-30T12:28:01;13.07;;;7.73;;
19358;SDS011;9815;52.334;20.890;2024-01-30T12:30:31;15.63;;;8.10;;
19358;SDS011;9815;52.334;20.890;2024-01-30T12:32:59;17.53;;;8.43;;
19358;SDS011;9815;52.334;20.890;2024-01-30T12:35:32;19.53;;;8.77;;
19358;SDS011;9815;52.334;20.890;2024-01-30T12:38:09;17.07;;;8.30;;
19358;SDS011;9815;52.334;20.890;2024-01-30T12:40:38;19.77;;;8.00;;
19358;SDS011;9815;52.334;20.890;2024-01-30T12:43:08;18.90;;;8.27;;
19358;SDS011;9815;52.334;20.890;2024-01-30T12:45:36;20.07;;;8.50;;
19358;SDS011;9815;52.334;20.890;2024-01-30T12:48:05;20.47;;;8.63;;
19358;SDS011;9815;52.334;20.890;2024-01-30T12:50:35;16.80;;;8.33;;
19358;SDS011;9815;52.334;20.890;2024-01-30T12:53:04;18.93;;;9.00;;
19358;SDS011;9815;52.334;20.890;2024-01-30T12:55:33;15.80;;;8.23;;
19358;SDS011;9815;52.334;20.890;2024-01-30T12:58:01;22.87;;;8.80;;
19358;SDS011;9815;52.334;20.890;2024-01-30T13:00:30;18.53;;;8.30;;
19358;SDS011;9815;52.334;20.890;2024-01-30T13:02:59;17.70;;;8.70;;
19358;SDS011;9815;52.334;20.890;2024-01-30T13:05:27;17.77;;;8.50;;
19358;SDS011;9815;52.334;20.890;2024-01-30T13:07:57;21.60;;;9.80;;
19358;SDS011;9815;52.334;20.890;2024-01-30T13:10:26;22.20;;;9.47;;
19358;SDS011;9815;52.334;20.890;2024-01-30T13:12:55;21.30;;;9.73;;
19358;SDS011;9815;52.334;20.890;2024-01-30T13:15:23;26.17;;;9.30;;
19358;SDS011;9815;52.334;20.890;2024-01-30T13:17:52;20.43;;;9.60;;
19358;SDS011;9815;52.334;20.890;2024-01-30T13:20:21;15.03;;;8.47;;
19358;SDS011;9815;52.334;20.890;2024-01-30T13:22:50;17.17;;;8.27;;
19358;SDS011;9815;52.334;20.890;2024-01-30T13:25:19;18.93;;;9.03;;
19358;SDS011;9815;52.334;20.890;2024-01-30T13:27:48;14.77;;;8.10;;
19358;SDS011;9815;52.334;20.890;2024-01-30T13:30:16;17.77;;;8.80;;
19358;SDS011;9815;52.334;20.890;2024-01-30T13:32:45;21.33;;;8.57;;
19358;SDS011;9815;52.334;20.890;2024-01-30T13:35:14;17.67;;;8.40;;
19358;SDS011;9815;52.334;20.890;2024-01-30T13:37:43;17.50;;;8.17;;
19358;SDS011;9815;52.334;20.890;2024-01-30T13:40:14;20.03;;;9.33;;
19358;SDS011;9815;52.334;20.890;2024-01-30T13:42:44;16.87;;;8.87;;
19358;SDS011;9815;52.334;20.890;2024-01-30T13:45:13;18.97;;;8.57;;
19358;SDS011;9815;52.334;20.890;2024-01-30T13:47:41;20.57;;;9.37;;
19358;SDS011;9815;52.334;20.890;2024-01-30T13:50:10;17.30;;;8.37;;
19358;SDS011;9815;52.334;20.890;2024-01-30T13:52:43;19.00;;;8.50;;
19358;SDS011;9815;52.334;20.890;2024-01-30T13:55:12;22.47;;;8.47;;
19358;SDS011;9815;52.334;20.890;2024-01-30T13:57:41;16.70;;;7.80;;
19358;SDS011;9815;52.334;20.890;2024-01-30T14:00:12;19.13;;;9.13;;
19358;SDS011;9815;52.334;20.890;2024-01-30T14:02:43;24.27;;;9.20;;
19358;SDS011;9815;52.334;20.890;2024-01-30T14:05:12;21.80;;;8.63;;
19358;SDS011;9815;52.334;20.890;2024-01-30T14:07:42;20.27;;;9.30;;
19358;SDS011;9815;52.334;20.890;2024-01-30T14:10:12;16.73;;;8.40;;
19358;SDS011;9815;52.334;20.890;2024-01-30T14:12:41;20.17;;;9.67;;
19358;SDS011;9815;52.334;20.890;2024-01-30T14:15:13;22.57;;;9.67;;
19358;SDS011;9815;52.334;20.890;2024-01-30T14:17:55;21.67;;;9.67;;
19358;SDS011;9815;52.334;20.890;2024-01-30T14:20:25;23.10;;;9.70;;
19358;SDS011;9815;52.334;20.890;2024-01-30T14:22:54;28.03;;;9.90;;
19358;SDS011;9815;52.334;20.890;2024-01-30T14:25:23;21.17;;;9.63;;
19358;SDS011;9815;52.334;20.890;2024-01-30T14:27:52;21.83;;;10.03;;
19358;SDS011;9815;52.334;20.890;2024-01-30T14:30:23;26.17;;;10.17;;
19358;SDS011;9815;52.334;20.890;2024-01-30T14:32:51;27.80;;;10.30;;
19358;SDS011;9815;52.334;20.890;2024-01-30T14:35:20;23.33;;;9.80;;
19358;SDS011;9815;52.334;20.890;2024-01-30T14:37:49;17.97;;;9.73;;
19358;SDS011;9815;52.334;20.890;2024-01-30T14:40:17;21.83;;;9.37;;